トゥールーズ の空港の天気 - METARとTAF

トゥールーズ・ブラニャック空港 ( LFBO / TLS ) - フランス トゥールーズ
飛行場実況気象(Metar)
観測時間07/09 15:30 CEST (07/09 13:30 UTC)
風向・風速北北西 3m/s
視程10km以上
天気現象
少しの雲 雲底高度 580m
気温33℃
湿度32%
気圧1017hPa
METARLFBO 091330Z AUTO 33006KT 270V360 9999 FEW019 33/14 Q1017 NOSIG
過去の天気等 Google飛行場航空写真 Wunderground天気予報

過去48時間のMETAR

飛行場予報(TAF)
発表時間: 7/09 13:00 CEST (7/09 11:00 UTC)
予報対象時間: 9日14時 CEST ~ 10日20時 CEST
風向・風速北北西 2m/s
視程10km以上
なし
9日23時 CEST ~ 10日1時 CEST に徐々に
風向・風速西 5m/s
10日1時 CEST ~ 10日3時 CEST に 確率 30% で一時的に
風向・風速西 8m/s 瞬間風速 13m/s
TAF LFBO 091100Z 0912/1018 33004KT CAVOK
BECMG 0921/0923 27010KT
PROB30 TEMPO 0923/1001 27015G25KT